createdAt,value
2023-03-16T00:00:43.683Z,45.50
2023-03-16T00:01:43.693Z,49.02
2023-03-16T00:02:43.708Z,55.82
2023-03-16T00:03:43.690Z,41.73
2023-03-16T00:04:43.695Z,48.98
2023-03-16T00:05:43.639Z,44.16
2023-03-16T00:06:43.648Z,41.52
2023-03-16T00:07:43.631Z,41.67
2023-03-16T00:08:43.664Z,44.89
2023-03-16T00:09:43.620Z,41.51
2023-03-16T00:10:43.613Z,43.00
2023-03-16T00:11:43.612Z,50.16
2023-03-16T00:12:43.869Z,42.23
2023-03-16T00:13:43.620Z,48.31
2023-03-16T00:14:43.589Z,55.22
2023-03-16T00:15:43.586Z,46.61
2023-03-16T00:16:43.601Z,53.34
2023-03-16T00:17:43.562Z,42.33
2023-03-16T00:18:43.559Z,46.77
2023-03-16T00:19:43.575Z,61.31
2023-03-16T00:20:43.540Z,46.17
2023-03-16T00:21:43.542Z,44.00
2023-03-16T00:22:43.534Z,56.63
2023-03-16T00:23:43.592Z,42.76
2023-03-16T00:24:43.552Z,42.49
2023-03-16T00:25:43.504Z,59.06
2023-03-16T00:26:43.498Z,54.67
2023-03-16T00:27:43.504Z,44.00
2023-03-16T00:28:43.506Z,45.65
2023-03-16T00:29:43.511Z,56.99
2023-03-16T00:30:43.471Z,45.18
2023-03-16T00:31:43.472Z,45.07
2023-03-16T00:32:43.514Z,59.11
2023-03-16T00:33:43.454Z,58.35
2023-03-16T00:34:43.466Z,60.58
2023-03-16T00:35:43.434Z,61.97
2023-03-16T00:36:43.424Z,58.79
2023-03-16T00:37:43.448Z,57.85
2023-03-16T00:38:43.408Z,57.97
2023-03-16T00:39:43.428Z,58.22
2023-03-16T00:40:43.399Z,58.55
2023-03-16T00:41:43.384Z,60.76
2023-03-16T00:42:43.382Z,60.14
2023-03-16T00:43:43.386Z,60.35
2023-03-16T00:44:43.394Z,62.79
2023-03-16T00:45:43.409Z,60.44
2023-03-16T00:46:43.356Z,60.37
2023-03-16T00:47:43.353Z,60.41
2023-03-16T00:48:43.337Z,61.95
2023-03-16T00:49:43.347Z,60.24
2023-03-16T00:50:43.339Z,60.06
2023-03-16T00:51:43.316Z,60.06
2023-03-16T00:52:43.308Z,62.20
2023-03-16T00:53:43.306Z,60.13
2023-03-16T00:54:43.357Z,60.11
2023-03-16T00:55:43.282Z,63.30
2023-03-16T00:56:43.283Z,59.76
2023-03-16T00:57:43.281Z,59.97
2023-03-16T00:58:43.416Z,61.93
2023-03-16T00:59:43.284Z,45.55
2023-03-16T01:00:43.250Z,48.61
2023-03-16T01:01:43.244Z,57.59
2023-03-16T01:02:43.245Z,41.58
2023-03-16T01:03:44.245Z,40.52
2023-03-16T01:04:43.269Z,41.35
2023-03-16T01:05:43.223Z,42.47
2023-03-16T01:06:43.202Z,43.94
2023-03-16T01:07:43.199Z,52.89
2023-03-16T01:08:43.196Z,45.23
2023-03-16T01:09:43.214Z,49.07
2023-03-16T01:10:43.203Z,52.13
2023-03-16T01:11:43.175Z,46.97
2023-03-16T01:12:43.163Z,52.40
2023-03-16T01:13:43.146Z,50.01
2023-03-16T01:14:43.242Z,45.28
2023-03-16T01:15:43.157Z,44.48
2023-03-16T01:16:43.169Z,56.56
2023-03-16T01:17:43.131Z,49.34
2023-03-16T01:18:43.122Z,59.12
2023-03-16T01:19:43.139Z,58.55
2023-03-16T01:20:43.110Z,58.28
2023-03-16T01:21:43.109Z,60.00
2023-03-16T01:22:43.122Z,60.59
2023-03-16T01:23:43.096Z,58.77
2023-03-16T01:24:43.105Z,58.61
2023-03-16T01:25:43.074Z,58.97
2023-03-16T01:26:43.081Z,59.21
2023-03-16T01:27:43.164Z,59.65
2023-03-16T01:28:43.051Z,61.95
2023-03-16T01:29:43.071Z,62.11
2023-03-16T01:30:43.112Z,60.16
2023-03-16T01:31:43.798Z,60.03
2023-03-16T01:32:43.077Z,59.93
2023-03-16T01:33:43.035Z,59.87
2023-03-16T01:34:43.031Z,59.75
2023-03-16T01:35:43.033Z,59.80
2023-03-16T01:36:42.987Z,59.44
2023-03-16T01:37:42.982Z,59.67
2023-03-16T01:38:42.976Z,61.31
2023-03-16T01:39:43.033Z,60.09
2023-03-16T01:40:42.962Z,57.93
2023-03-16T01:41:42.963Z,46.79
2023-03-16T01:42:42.947Z,49.24
2023-03-16T01:43:42.950Z,55.97
2023-03-16T01:44:42.970Z,51.00
2023-03-16T01:45:42.928Z,47.25
2023-03-16T01:46:42.917Z,60.81
2023-03-16T01:47:42.905Z,53.88
2023-03-16T01:48:42.902Z,46.25
2023-03-16T01:49:42.922Z,58.69
2023-03-16T01:50:42.904Z,43.47
2023-03-16T01:51:42.885Z,46.08
2023-03-16T01:52:42.920Z,45.80
2023-03-16T01:53:42.885Z,42.58
2023-03-16T01:54:42.906Z,46.19
2023-03-16T01:55:42.864Z,43.78
2023-03-16T01:56:42.861Z,53.74
2023-03-16T01:57:42.873Z,47.06
2023-03-16T01:58:42.838Z,42.82
2023-03-16T01:59:42.857Z,46.64
2023-03-16T02:00:42.835Z,53.31
2023-03-16T02:01:42.864Z,57.90
2023-03-16T02:02:42.816Z,57.33
2023-03-16T02:03:42.913Z,58.83
2023-03-16T02:04:42.943Z,60.70
2023-03-16T02:05:42.778Z,60.86
2023-03-16T02:06:42.773Z,60.69
2023-03-16T02:07:42.776Z,61.59
2023-03-16T02:08:42.792Z,60.67
2023-03-16T02:09:42.812Z,60.78
2023-03-16T02:10:42.757Z,63.31
2023-03-16T02:11:42.746Z,60.50
2023-03-16T02:12:42.742Z,60.22
2023-03-16T02:13:42.732Z,60.27
2023-03-16T02:14:42.741Z,61.39
2023-03-16T02:15:42.783Z,60.87
2023-03-16T02:16:42.712Z,60.40
2023-03-16T02:17:42.705Z,60.20
2023-03-16T02:18:42.710Z,60.48
2023-03-16T02:19:42.753Z,60.53
2023-03-16T02:20:42.677Z,60.04
2023-03-16T02:21:42.713Z,59.86
2023-03-16T02:22:42.670Z,51.14
2023-03-16T02:23:42.658Z,48.70
2023-03-16T02:24:42.697Z,47.15
2023-03-16T02:25:42.672Z,44.17
2023-03-16T02:26:42.643Z,48.67
2023-03-16T02:27:42.635Z,44.40
2023-03-16T02:28:42.630Z,41.26
2023-03-16T02:29:42.646Z,46.26
2023-03-16T02:30:42.663Z,59.06
2023-03-16T02:31:42.611Z,52.13
2023-03-16T02:32:42.647Z,47.09
2023-03-16T02:33:42.589Z,59.10
2023-03-16T02:34:42.650Z,61.53
2023-03-16T02:35:42.617Z,59.03
2023-03-16T02:36:42.574Z,61.00
2023-03-16T02:37:42.569Z,59.37
2023-03-16T02:38:42.549Z,60.27
2023-03-16T02:39:42.567Z,58.53
2023-03-16T02:40:42.570Z,59.99
2023-03-16T02:41:42.528Z,61.65
2023-03-16T02:42:42.536Z,59.50
2023-03-16T02:43:42.519Z,60.56
2023-03-16T02:44:42.544Z,61.17
2023-03-16T02:45:42.501Z,61.03
2023-03-16T02:46:42.519Z,61.36
2023-03-16T02:47:42.515Z,61.10
2023-03-16T02:48:42.483Z,61.05
2023-03-16T02:49:42.488Z,61.09
2023-03-16T02:50:42.491Z,60.97
2023-03-16T02:51:42.458Z,61.73
2023-03-16T02:52:42.439Z,61.05
2023-03-16T02:53:42.437Z,61.10
2023-03-16T02:54:42.442Z,61.05
2023-03-16T02:55:42.448Z,61.06
2023-03-16T02:56:42.430Z,60.90
2023-03-16T02:57:42.407Z,61.66
2023-03-16T02:58:42.408Z,62.02
2023-03-16T02:59:42.406Z,62.68
2023-03-16T03:00:42.443Z,63.60
2023-03-16T03:01:42.379Z,61.86
2023-03-16T03:02:42.374Z,62.16
2023-03-16T03:03:42.413Z,61.81
2023-03-16T03:04:42.363Z,61.75
2023-03-16T03:05:42.377Z,61.72
2023-03-16T03:06:42.365Z,62.21
2023-03-16T03:07:42.357Z,61.61
2023-03-16T03:08:42.330Z,61.49
2023-03-16T03:09:42.340Z,61.70
2023-03-16T03:10:42.369Z,62.41
2023-03-16T03:11:42.306Z,60.77
2023-03-16T03:12:42.314Z,60.86
2023-03-16T03:13:42.295Z,60.55
2023-03-16T03:14:42.291Z,62.66
2023-03-16T03:15:42.333Z,60.75
2023-03-16T03:16:42.317Z,60.53
2023-03-16T03:17:42.269Z,60.43
2023-03-16T03:18:42.261Z,60.35
2023-03-16T03:19:42.255Z,60.35
2023-03-16T03:20:42.360Z,60.03
2023-03-16T03:21:42.239Z,60.37
2023-03-16T03:22:42.231Z,60.16
2023-03-16T03:23:42.223Z,60.25
2023-03-16T03:24:42.255Z,59.70
2023-03-16T03:25:42.234Z,59.96
2023-03-16T03:26:42.201Z,59.99
2023-03-16T03:27:42.211Z,59.59
2023-03-16T03:28:42.198Z,60.48
2023-03-16T03:29:42.166Z,60.91
2023-03-16T03:30:43.202Z,61.62
2023-03-16T03:31:42.185Z,60.24
2023-03-16T03:32:42.194Z,59.20
2023-03-16T03:33:42.148Z,58.29
2023-03-16T03:34:42.145Z,58.86
2023-03-16T03:35:42.262Z,59.36
2023-03-16T03:36:42.129Z,59.45
2023-03-16T03:37:42.116Z,60.23
2023-03-16T03:38:42.119Z,63.12
2023-03-16T03:39:42.106Z,59.58
2023-03-16T03:40:42.135Z,57.60
2023-03-16T03:41:42.088Z,61.41
2023-03-16T03:42:42.083Z,58.54
2023-03-16T03:43:42.101Z,61.56
2023-03-16T03:44:42.074Z,58.52
2023-03-16T03:45:42.230Z,58.14
2023-03-16T03:46:42.120Z,62.85
2023-03-16T03:47:42.062Z,58.29
2023-03-16T03:48:42.036Z,57.72
2023-03-16T03:49:42.033Z,59.26
2023-03-16T03:50:42.069Z,60.14
2023-03-16T03:51:42.021Z,61.19
2023-03-16T03:52:42.029Z,59.62
2023-03-16T03:53:42.001Z,59.74
2023-03-16T03:54:41.991Z,59.72
2023-03-16T03:55:42.011Z,59.46
2023-03-16T03:56:42.016Z,59.21
2023-03-16T03:57:41.975Z,59.06
2023-03-16T03:58:41.964Z,59.32
2023-03-16T03:59:41.956Z,59.64
2023-03-16T04:00:41.989Z,60.26
2023-03-16T04:01:41.941Z,59.36
2023-03-16T04:02:42.057Z,59.72
2023-03-16T04:03:44.097Z,59.70
2023-03-16T04:04:41.950Z,62.39
2023-03-16T04:05:41.951Z,59.68
2023-03-16T04:06:41.915Z,59.77
2023-03-16T04:07:41.891Z,59.79
2023-03-16T04:08:41.886Z,60.22
2023-03-16T04:09:41.894Z,60.02
2023-03-16T04:10:41.900Z,61.35
2023-03-16T04:11:41.871Z,59.88
2023-03-16T04:12:41.861Z,59.55
2023-03-16T04:13:41.878Z,60.23
2023-03-16T04:14:41.848Z,60.90
2023-03-16T04:15:41.865Z,59.44
2023-03-16T04:16:41.888Z,60.09
2023-03-16T04:17:41.828Z,60.62
2023-03-16T04:18:41.816Z,60.71
2023-03-16T04:19:41.824Z,59.39
2023-03-16T04:20:41.828Z,59.46
2023-03-16T04:21:41.793Z,59.42
2023-03-16T04:22:41.822Z,60.23
2023-03-16T04:23:41.787Z,60.42
2023-03-16T04:24:41.773Z,59.64
2023-03-16T04:25:41.794Z,59.65
2023-03-16T04:26:41.768Z,63.81
2023-03-16T04:27:41.792Z,59.09
2023-03-16T04:28:41.746Z,59.35
2023-03-16T04:29:41.749Z,59.37
2023-03-16T04:30:41.809Z,59.57
2023-03-16T04:31:41.715Z,59.17
2023-03-16T04:32:41.817Z,59.85
2023-03-16T04:33:41.711Z,59.77
2023-03-16T04:34:41.731Z,60.41
2023-03-16T04:35:41.787Z,60.39
2023-03-16T04:36:41.693Z,59.48
2023-03-16T04:37:41.692Z,59.42
2023-03-16T04:38:41.686Z,59.60
2023-03-16T04:39:41.672Z,60.92
2023-03-16T04:40:41.692Z,59.73
2023-03-16T04:41:41.664Z,59.54
2023-03-16T04:42:41.647Z,59.49
2023-03-16T04:43:41.638Z,59.70
2023-03-16T04:44:41.635Z,61.91
2023-03-16T04:45:41.661Z,59.75
2023-03-16T04:46:41.702Z,59.62
2023-03-16T04:47:41.620Z,60.11
2023-03-16T04:48:41.613Z,59.75
2023-03-16T04:49:41.599Z,59.79
2023-03-16T04:50:41.589Z,59.98
2023-03-16T04:51:41.616Z,59.45
2023-03-16T04:52:41.570Z,59.38
2023-03-16T04:53:41.580Z,59.75
2023-03-16T04:54:41.569Z,60.14
2023-03-16T04:55:41.546Z,59.57
2023-03-16T04:56:41.714Z,60.12
2023-03-16T04:57:41.545Z,59.60
2023-03-16T04:58:41.532Z,59.44
2023-03-16T04:59:41.529Z,61.26
2023-03-16T05:00:41.560Z,59.91
2023-03-16T05:01:41.678Z,60.51
2023-03-16T05:02:41.525Z,59.97
2023-03-16T05:03:41.501Z,61.26
2023-03-16T05:04:41.498Z,60.07
2023-03-16T05:05:41.573Z,60.15
2023-03-16T05:06:41.541Z,59.85
2023-03-16T05:07:41.465Z,61.19
2023-03-16T05:08:41.460Z,60.11
2023-03-16T05:09:41.457Z,59.23
2023-03-16T05:10:41.456Z,59.85
2023-03-16T05:11:41.473Z,62.06
2023-03-16T05:12:41.435Z,60.04
2023-03-16T05:13:41.431Z,60.14
2023-03-16T05:14:41.419Z,59.99
2023-03-16T05:15:41.458Z,60.17
2023-03-16T05:16:41.434Z,60.21
2023-03-16T05:17:41.397Z,60.53
2023-03-16T05:18:41.394Z,60.58
2023-03-16T05:19:41.377Z,62.34
2023-03-16T05:20:41.373Z,60.14
2023-03-16T05:21:41.396Z,59.78
2023-03-16T05:22:41.355Z,60.54
2023-03-16T05:23:41.352Z,59.98
2023-03-16T05:24:41.392Z,59.75
2023-03-16T05:25:41.373Z,62.93
2023-03-16T05:26:41.370Z,59.77
2023-03-16T05:27:41.332Z,61.35
2023-03-16T05:28:41.318Z,60.81
2023-03-16T05:29:41.307Z,60.33
2023-03-16T05:30:41.330Z,59.02
2023-03-16T05:31:41.443Z,62.83
2023-03-16T05:32:41.293Z,60.10
2023-03-16T05:33:41.325Z,60.21
2023-03-16T05:34:41.299Z,59.77
2023-03-16T05:35:41.291Z,62.54
2023-03-16T05:36:41.295Z,59.99
2023-03-16T05:37:41.260Z,60.41
2023-03-16T05:38:41.248Z,59.95
2023-03-16T05:39:41.231Z,60.21
2023-03-16T05:40:41.252Z,60.59
2023-03-16T05:41:41.248Z,61.31
2023-03-16T05:42:41.222Z,60.39
2023-03-16T05:43:41.257Z,59.87
2023-03-16T05:44:41.274Z,60.58
2023-03-16T05:45:41.198Z,60.01
2023-03-16T05:46:41.335Z,60.69
2023-03-16T05:47:41.190Z,61.15
2023-03-16T05:48:41.171Z,60.86
2023-03-16T05:49:41.189Z,62.10
2023-03-16T05:50:41.165Z,65.39
2023-03-16T05:51:41.181Z,67.59
2023-03-16T05:52:41.162Z,61.26
2023-03-16T05:53:41.140Z,63.90
2023-03-16T05:54:41.142Z,60.78
2023-03-16T05:55:41.138Z,60.83
2023-03-16T05:56:41.155Z,60.86
2023-03-16T05:57:41.111Z,62.74
2023-03-16T05:58:41.131Z,60.55
2023-03-16T05:59:41.105Z,60.33
2023-03-16T06:00:41.093Z,61.34
2023-03-16T06:01:41.136Z,59.43
2023-03-16T06:02:41.163Z,59.97
2023-03-16T06:03:41.090Z,62.57
2023-03-16T06:04:41.081Z,60.05
2023-03-16T06:05:41.056Z,60.15
2023-03-16T06:06:41.090Z,61.26
2023-03-16T06:07:41.046Z,60.86
2023-03-16T06:08:41.037Z,59.60
2023-03-16T06:09:41.033Z,60.59
2023-03-16T06:10:41.029Z,61.04
2023-03-16T06:11:41.046Z,61.92
2023-03-16T06:12:41.019Z,60.87
2023-03-16T06:13:41.080Z,60.28
2023-03-16T06:14:40.993Z,61.62
2023-03-16T06:15:40.980Z,60.58
2023-03-16T06:16:41.136Z,61.11
2023-03-16T06:17:40.976Z,60.29
2023-03-16T06:18:40.974Z,59.65
2023-03-16T06:19:40.947Z,60.10
2023-03-16T06:20:40.945Z,60.87
2023-03-16T06:21:40.978Z,60.42
2023-03-16T06:22:40.929Z,62.68
2023-03-16T06:23:40.923Z,60.22
2023-03-16T06:24:41.022Z,60.68
2023-03-16T06:25:40.914Z,60.56
2023-03-16T06:26:40.923Z,60.32
2023-03-16T06:27:40.893Z,60.39
2023-03-16T06:28:40.890Z,60.50
2023-03-16T06:29:40.890Z,63.08
2023-03-16T06:30:40.881Z,61.11
2023-03-16T06:31:41.023Z,60.81
2023-03-16T06:32:40.872Z,60.25
2023-03-16T06:33:40.873Z,60.70
2023-03-16T06:34:40.853Z,59.63
2023-03-16T06:35:40.876Z,60.05
2023-03-16T06:36:40.858Z,62.14
2023-03-16T06:37:40.823Z,61.18
2023-03-16T06:38:40.826Z,60.13
2023-03-16T06:39:41.722Z,60.08
2023-03-16T06:40:40.813Z,59.59
2023-03-16T06:41:40.894Z,59.84
2023-03-16T06:42:40.797Z,59.40
2023-03-16T06:43:40.793Z,59.98
2023-03-16T06:44:40.784Z,60.51
2023-03-16T06:45:40.796Z,62.16
2023-03-16T06:46:40.806Z,60.05
2023-03-16T06:47:40.777Z,66.44
2023-03-16T06:48:40.751Z,60.67
2023-03-16T06:49:40.764Z,58.84
2023-03-16T06:50:40.762Z,58.45
2023-03-16T06:51:40.756Z,59.83
2023-03-16T06:52:40.724Z,60.70
2023-03-16T06:53:40.726Z,59.43
2023-03-16T06:54:40.724Z,58.08
2023-03-16T06:55:40.705Z,63.69
2023-03-16T06:56:40.740Z,61.20
2023-03-16T06:57:40.704Z,59.74
2023-03-16T06:58:40.690Z,61.82
2023-03-16T06:59:40.820Z,61.56
2023-03-16T07:00:40.669Z,60.21
2023-03-16T07:01:40.680Z,59.86
2023-03-16T07:02:40.652Z,58.08
2023-03-16T07:03:40.646Z,59.75
2023-03-16T07:04:40.681Z,59.34
2023-03-16T07:05:40.651Z,61.34
2023-03-16T07:06:40.672Z,58.99
2023-03-16T07:07:40.611Z,59.54
2023-03-16T07:08:40.642Z,60.09
2023-03-16T07:09:41.880Z,61.18
2023-03-16T07:10:41.590Z,61.25
2023-03-16T07:11:40.611Z,61.11
2023-03-16T07:12:40.578Z,59.94
2023-03-16T07:13:40.573Z,60.22
2023-03-16T07:14:40.579Z,59.51
2023-03-16T07:15:40.560Z,60.22
2023-03-16T07:16:40.639Z,59.96
2023-03-16T07:17:40.574Z,60.31
2023-03-16T07:18:40.531Z,60.12
2023-03-16T07:19:40.527Z,59.81
2023-03-16T07:20:40.519Z,59.51
2023-03-16T07:21:40.542Z,60.35
2023-03-16T07:22:40.575Z,59.73
2023-03-16T07:23:40.500Z,60.29
2023-03-16T07:24:40.488Z,60.48
2023-03-16T07:25:40.474Z,63.54
2023-03-16T07:26:40.482Z,59.50
2023-03-16T07:27:40.490Z,59.80
2023-03-16T07:28:40.459Z,59.92
2023-03-16T07:29:40.449Z,58.96
2023-03-16T07:30:41.345Z,62.07
2023-03-16T07:31:40.471Z,59.69
2023-03-16T07:32:40.476Z,59.34
2023-03-16T07:33:40.422Z,61.36
2023-03-16T07:34:40.612Z,63.24
2023-03-16T07:35:40.556Z,60.24
2023-03-16T07:36:40.425Z,62.14
2023-03-16T07:37:40.420Z,59.44
2023-03-16T07:38:40.375Z,59.47
2023-03-16T07:39:40.375Z,55.44
2023-03-16T07:40:40.374Z,56.46
2023-03-16T07:41:40.395Z,56.94
2023-03-16T07:42:40.412Z,61.27
2023-03-16T07:43:40.354Z,59.13
2023-03-16T07:44:40.337Z,54.10
2023-03-16T07:45:40.378Z,58.08
2023-03-16T07:46:40.318Z,54.98
2023-03-16T07:47:40.475Z,54.95
2023-03-16T07:48:40.312Z,58.53
2023-03-16T07:49:40.296Z,55.22
2023-03-16T07:50:40.282Z,57.61
2023-03-16T07:51:40.271Z,55.04
2023-03-16T07:52:40.346Z,60.67
2023-03-16T07:53:40.266Z,56.59
2023-03-16T07:54:40.258Z,55.37
2023-03-16T07:55:40.260Z,54.81
2023-03-16T07:56:48.965Z,55.92
2023-03-16T07:57:42.264Z,61.84
2023-03-16T07:58:40.227Z,55.47
2023-03-16T07:59:40.216Z,53.78
2023-03-16T08:00:40.222Z,57.49
2023-03-16T08:01:40.218Z,58.75
2023-03-16T08:02:40.294Z,53.57
2023-03-16T08:03:40.220Z,54.79
2023-03-16T08:04:40.183Z,54.03
2023-03-16T08:05:40.167Z,60.68
2023-03-16T08:06:40.164Z,55.20
2023-03-16T08:07:40.184Z,56.01
2023-03-16T08:08:40.157Z,54.46
2023-03-16T08:09:40.169Z,55.77
2023-03-16T08:10:40.138Z,54.05
2023-03-16T08:11:40.135Z,57.59
2023-03-16T08:12:40.236Z,49.74
2023-03-16T08:13:40.118Z,57.78
2023-03-16T08:14:41.113Z,57.46
2023-03-16T08:15:40.219Z,54.87
2023-03-16T08:16:40.125Z,56.55
2023-03-16T08:17:40.123Z,55.70
2023-03-16T08:18:40.074Z,55.83
2023-03-16T08:19:40.075Z,54.91
2023-03-16T08:20:40.095Z,57.93
2023-03-16T08:21:57.497Z,54.15
2023-03-16T08:22:42.095Z,55.48
2023-03-16T08:23:40.062Z,61.15
2023-03-16T08:24:40.054Z,56.19
2023-03-16T08:25:40.038Z,57.30
2023-03-16T08:26:40.058Z,57.33
2023-03-16T08:27:40.071Z,58.79
2023-03-16T08:28:40.071Z,55.47
2023-03-16T08:29:40.030Z,56.89
2023-03-16T08:30:40.003Z,53.89
2023-03-16T08:31:40.147Z,55.70
2023-03-16T08:32:40.204Z,60.97
2023-03-16T08:33:39.980Z,54.66
2023-03-16T08:34:40.046Z,54.92
2023-03-16T08:35:39.992Z,53.99
2023-03-16T08:36:40.025Z,55.47
2023-03-16T08:37:39.981Z,55.17
2023-03-16T08:38:39.945Z,56.78
2023-03-16T08:39:39.919Z,55.87
2023-03-16T08:40:39.929Z,56.56
2023-03-16T08:41:39.912Z,60.14
2023-03-16T08:42:39.943Z,57.92
2023-03-16T08:43:39.912Z,57.34
2023-03-16T08:44:39.903Z,58.31
2023-03-16T08:45:39.882Z,55.48
2023-03-16T08:46:39.946Z,52.24
2023-03-16T08:47:39.922Z,56.94
2023-03-16T08:48:39.862Z,53.73
2023-03-16T08:49:39.844Z,57.92
2023-03-16T08:50:39.840Z,57.07
2023-03-16T08:51:39.837Z,55.54
2023-03-16T08:52:39.848Z,56.31
2023-03-16T08:53:39.815Z,60.61
2023-03-16T08:54:39.819Z,57.16
2023-03-16T08:55:39.809Z,56.28
2023-03-16T08:56:39.797Z,59.76
2023-03-16T08:57:39.815Z,60.31
2023-03-16T08:58:39.777Z,55.75
2023-03-16T08:59:39.772Z,54.67
2023-03-16T09:00:39.766Z,57.02
2023-03-16T09:01:39.802Z,56.23
2023-03-16T09:02:39.787Z,56.78
2023-03-16T09:03:39.776Z,54.51
2023-03-16T09:04:39.771Z,52.50
2023-03-16T09:05:39.751Z,56.44
2023-03-16T09:06:39.798Z,56.70
2023-03-16T09:07:39.783Z,54.14
2023-03-16T09:08:39.829Z,56.36
2023-03-16T09:09:39.693Z,57.76
2023-03-16T09:10:39.688Z,62.94
2023-03-16T09:11:39.684Z,55.42
2023-03-16T09:12:39.697Z,56.34
2023-03-16T09:13:39.660Z,53.99
2023-03-16T09:14:39.656Z,59.51
2023-03-16T09:15:39.656Z,57.11
2023-03-16T09:16:39.746Z,62.20
2023-03-16T09:17:39.673Z,54.18
2023-03-16T09:18:39.634Z,52.87
2023-03-16T09:19:54.482Z,55.89
2023-03-16T09:20:41.653Z,52.66
2023-03-16T09:21:39.602Z,57.79
2023-03-16T09:22:39.623Z,54.96
2023-03-16T09:23:39.594Z,55.54
2023-03-16T09:24:39.583Z,55.55
2023-03-16T09:25:39.575Z,57.59
2023-03-16T09:26:39.636Z,53.20
2023-03-16T09:27:39.585Z,57.55
2023-03-16T09:28:39.552Z,56.74
2023-03-16T09:29:39.543Z,53.76
2023-03-16T09:30:39.541Z,53.11
2023-03-16T09:31:39.567Z,55.83
2023-03-16T09:32:39.672Z,55.31
2023-03-16T09:33:40.239Z,51.77
2023-03-16T09:34:39.511Z,55.33
2023-03-16T09:35:39.529Z,54.07
2023-03-16T09:36:39.494Z,53.70
2023-03-16T09:37:45.699Z,53.62
2023-03-16T09:38:41.472Z,61.51
2023-03-16T09:39:40.500Z,55.60
2023-03-16T09:40:39.517Z,52.53
2023-03-16T09:41:39.485Z,53.73
2023-03-16T09:42:39.447Z,59.91
2023-03-16T09:43:39.442Z,58.60
2023-03-16T09:44:39.439Z,57.19
2023-03-16T09:45:39.511Z,55.99
2023-03-16T09:46:39.429Z,59.14
2023-03-16T09:47:39.455Z,60.07
2023-03-16T09:48:39.442Z,56.07
2023-03-16T09:49:39.453Z,57.06
2023-03-16T09:50:48.287Z,55.78
2023-03-16T09:51:41.378Z,61.23
2023-03-16T09:52:39.393Z,57.98
2023-03-16T09:53:39.377Z,55.51
2023-03-16T09:54:39.396Z,54.67
2023-03-16T09:55:39.357Z,57.03
2023-03-16T09:56:39.412Z,55.79
2023-03-16T09:57:39.345Z,54.46
2023-03-16T09:58:39.338Z,60.60
2023-03-16T09:59:39.318Z,53.22
2023-03-16T10:00:39.337Z,57.00
2023-03-16T10:01:39.302Z,58.98
2023-03-16T10:02:39.311Z,60.11
2023-03-16T10:03:39.333Z,62.14
2023-03-16T10:04:39.319Z,56.15
2023-03-16T10:05:39.288Z,54.72
2023-03-16T10:06:39.298Z,55.52
2023-03-16T10:07:39.264Z,60.49
2023-03-16T10:08:39.267Z,57.23
2023-03-16T10:09:39.250Z,55.06
2023-03-16T10:10:39.243Z,53.69
2023-03-16T10:11:39.265Z,54.57
2023-03-16T10:12:39.237Z,58.29
2023-03-16T10:13:39.213Z,52.04
2023-03-16T10:14:39.247Z,53.54
2023-03-16T10:15:39.208Z,59.77
2023-03-16T10:16:39.301Z,55.23
2023-03-16T10:17:39.190Z,55.84
2023-03-16T10:18:39.177Z,57.60
2023-03-16T10:19:39.183Z,52.73
2023-03-16T10:20:39.168Z,54.80
2023-03-16T10:21:39.188Z,54.41
2023-03-16T10:22:39.151Z,60.73
2023-03-16T10:23:40.928Z,53.10
2023-03-16T10:24:40.142Z,56.51
2023-03-16T10:25:39.129Z,52.94
2023-03-16T10:26:39.211Z,54.07
2023-03-16T10:27:39.120Z,56.52
2023-03-16T10:28:39.097Z,54.77
2023-03-16T10:29:39.116Z,53.39
2023-03-16T10:30:39.092Z,51.22
2023-03-16T10:31:39.130Z,57.61
2023-03-16T10:32:39.109Z,57.49
2023-03-16T10:33:39.068Z,50.15
2023-03-16T10:34:39.058Z,56.98
2023-03-16T10:35:39.048Z,55.02
2023-03-16T10:36:39.102Z,53.28
2023-03-16T10:37:39.038Z,52.64
2023-03-16T10:38:39.053Z,56.02
2023-03-16T10:39:39.019Z,53.02
2023-03-16T10:40:39.005Z,56.39
2023-03-16T10:41:39.123Z,53.17
2023-03-16T10:42:39.069Z,51.64
2023-03-16T10:43:38.999Z,56.60
2023-03-16T10:44:39.046Z,61.54
2023-03-16T10:45:39.113Z,55.62
2023-03-16T10:46:39.129Z,54.61
2023-03-16T10:47:38.959Z,55.11
2023-03-16T10:48:38.948Z,59.55
2023-03-16T10:49:41.419Z,55.31
2023-03-16T10:50:39.002Z,56.30
2023-03-16T10:51:39.046Z,57.87
2023-03-16T10:52:38.946Z,57.94
2023-03-16T10:53:38.925Z,53.40
2023-03-16T10:54:38.906Z,54.56
2023-03-16T10:55:38.897Z,54.80
2023-03-16T10:56:38.920Z,52.24
2023-03-16T10:57:38.889Z,55.98
2023-03-16T10:58:38.886Z,62.11
2023-03-16T10:59:38.885Z,53.73
2023-03-16T11:00:38.864Z,54.41
2023-03-16T11:01:38.989Z,56.26
2023-03-16T11:02:39.888Z,59.44
2023-03-16T11:03:38.904Z,55.01
2023-03-16T11:04:38.900Z,53.96
2023-03-16T11:05:38.862Z,53.71
2023-03-16T11:06:38.825Z,53.66
2023-03-16T11:07:38.857Z,60.10
2023-03-16T11:08:38.844Z,57.16
2023-03-16T11:09:38.798Z,53.76
2023-03-16T11:10:49.541Z,56.22
2023-03-16T11:11:40.815Z,53.69
2023-03-16T11:12:38.832Z,55.63
2023-03-16T11:13:38.829Z,51.86
2023-03-16T11:14:38.924Z,54.99
2023-03-16T11:15:38.760Z,54.23
2023-03-16T11:16:38.816Z,53.92
2023-03-16T11:17:38.806Z,51.52
2023-03-16T11:18:38.737Z,54.27
2023-03-16T11:19:38.756Z,56.55
2023-03-16T11:20:38.770Z,58.58
2023-03-16T11:21:38.806Z,56.58
2023-03-16T11:22:38.722Z,55.18
2023-03-16T11:23:38.729Z,56.19
2023-03-16T11:24:38.851Z,55.55
2023-03-16T11:25:38.693Z,54.72
2023-03-16T11:26:38.674Z,54.85
2023-03-16T11:27:38.715Z,52.09
2023-03-16T11:28:38.668Z,54.96
2023-03-16T11:29:38.640Z,54.94
2023-03-16T11:30:38.679Z,54.94
2023-03-16T11:31:38.629Z,57.08
2023-03-16T11:32:38.777Z,55.28
2023-03-16T11:33:38.624Z,54.81
2023-03-16T11:34:38.612Z,56.65
2023-03-16T11:35:44.064Z,56.03
2023-03-16T11:36:40.585Z,53.37
2023-03-16T11:37:38.620Z,53.31
2023-03-16T11:38:38.562Z,57.69
2023-03-16T11:39:38.559Z,49.43
2023-03-16T11:40:38.549Z,55.63
2023-03-16T11:41:38.554Z,54.64
2023-03-16T11:42:38.576Z,56.94
2023-03-16T11:43:38.543Z,53.60
2023-03-16T11:44:38.558Z,60.37
2023-03-16T11:45:38.621Z,51.84
2023-03-16T11:46:38.548Z,55.28
2023-03-16T11:47:38.542Z,58.68
2023-03-16T11:48:38.569Z,55.13
2023-03-16T11:49:38.494Z,56.22
2023-03-16T11:50:38.499Z,51.93
2023-03-16T11:51:40.387Z,55.87
2023-03-16T11:52:38.626Z,53.16
2023-03-16T11:53:38.644Z,55.82
2023-03-16T11:54:38.474Z,56.08
2023-03-16T11:55:38.440Z,53.56
2023-03-16T11:56:38.433Z,56.15
2023-03-16T11:57:38.453Z,54.45
2023-03-16T11:58:38.451Z,57.31
2023-03-16T11:59:40.884Z,57.27
2023-03-16T12:00:38.394Z,55.76
2023-03-16T12:01:43.040Z,56.53
2023-03-16T12:02:38.460Z,53.14
2023-03-16T12:03:38.476Z,55.41
2023-03-16T12:04:38.385Z,53.88
2023-03-16T12:05:38.357Z,54.46
2023-03-16T12:06:38.348Z,54.75
2023-03-16T12:07:38.364Z,57.43
2023-03-16T12:08:38.332Z,52.02
2023-03-16T12:09:38.352Z,56.30
2023-03-16T12:10:38.316Z,54.17
2023-03-16T12:11:40.888Z,63.09
2023-03-16T12:12:38.307Z,61.45
2023-03-16T12:13:38.313Z,56.24
2023-03-16T12:14:38.850Z,54.52
2023-03-16T12:15:38.283Z,56.87
2023-03-16T12:16:48.604Z,62.22
2023-03-16T12:17:40.292Z,56.03
2023-03-16T12:18:38.256Z,58.05
2023-03-16T12:19:38.263Z,60.31
2023-03-16T12:20:38.236Z,53.58
2023-03-16T12:21:38.226Z,56.23
2023-03-16T12:22:38.226Z,56.60
2023-03-16T12:23:38.251Z,59.90
2023-03-16T12:24:38.201Z,52.65
2023-03-16T12:25:38.227Z,56.23
2023-03-16T12:26:38.202Z,57.55
2023-03-16T12:27:38.189Z,53.28
2023-03-16T12:28:38.205Z,61.31
2023-03-16T12:29:38.163Z,58.34
2023-03-16T12:30:38.161Z,57.89
2023-03-16T12:31:38.182Z,53.15
2023-03-16T12:32:38.181Z,55.78
2023-03-16T12:33:38.171Z,57.58
2023-03-16T12:34:38.120Z,62.19
2023-03-16T12:35:38.175Z,54.23
2023-03-16T12:36:38.117Z,55.76
2023-03-16T12:37:38.104Z,57.16
2023-03-16T12:38:38.150Z,55.40
2023-03-16T12:39:38.101Z,56.20
2023-03-16T12:40:38.100Z,56.50
2023-03-16T12:41:38.096Z,56.48
2023-03-16T12:42:38.081Z,57.64
2023-03-16T12:43:38.857Z,51.72
2023-03-16T12:44:38.062Z,58.35
2023-03-16T12:45:38.166Z,57.62
2023-03-16T12:46:38.050Z,54.81
2023-03-16T12:47:38.101Z,60.83
2023-03-16T12:48:38.061Z,59.92
2023-03-16T12:49:38.019Z,53.18
2023-03-16T12:50:38.002Z,56.03
2023-03-16T12:51:37.995Z,55.18
2023-03-16T12:52:37.990Z,52.45